Time;durP1;ratioP1;P1;durP2;ratioP2;P2;SDS_P1;SDS_P2;PMS_P1;PMS_P2;Temp;Humidity;BMP_temperature;BMP_pressure;BME280_temperature;BME280_humidity;BME280_pressure;Samples;Min_cycle;Max_cycle;Signal;HPM_P1;HPM_P2
2022/01/27 00:00:37;;;;;;;;;;;;;;;26.72;52.89;97642.67;626923;226;65258;-67
2022/01/27 00:03:16;;;;;;;;;;;;;;;26.70;54.46;97644.84;626384;225;67136;-67
2022/01/27 00:05:24;;;;;;;;;;;;;;;26.69;52.60;97651.34;625704;226;67036;-67
2022/01/27 00:08:10;;;;;;;;;;;;;;;26.69;53.62;97647.86;626841;225;65001;-67
2022/01/27 00:10:49;;;;;;;;;;;;;;;26.65;51.73;97653.01;626230;226;69867;-64
2022/01/27 00:13:01;;;;;;;;;;;;;;;26.65;53.40;97647.62;626375;225;65100;-64
2022/01/27 00:15:32;;;;;;;;;;;;;;;26.66;53.00;97654.63;626862;226;65028;-64
2022/01/27 00:18:02;;;;;;;;;;;;;;;26.66;52.56;97643.05;626864;225;67235;-64
2022/01/27 00:20:27;;;;;;;;;;;;;;;26.61;53.86;97654.70;626816;225;64858;-64
2022/01/27 00:22:54;;;;;;;;;;;;;;;26.63;50.28;97649.83;626869;226;65068;-64
2022/01/27 00:25:22;;;;;;;;;;;;;;;26.62;55.07;97648.20;626869;226;67188;-64
2022/01/27 00:27:49;;;;;;;;;;;;;;;26.60;53.77;97647.72;626911;226;65430;-64
2022/01/27 00:30:17;;;;;;;;;;;;;;;26.58;53.39;97641.02;626919;226;62791;-63
2022/01/27 00:32:44;;;;;;;;;;;;;;;26.56;53.86;97644.79;626888;226;65079;-64
2022/01/27 00:35:12;;;;;;;;;;;;;;;26.55;54.78;97645.09;626825;226;65242;-64
2022/01/27 00:37:39;;;;;;;;;;;;;;;26.54;55.30;97646.17;626855;226;65108;-63
2022/01/27 00:40:10;;;;;;;;;;;;;;;26.54;54.78;97646.17;626891;226;67091;-64
2022/01/27 00:42:36;;;;;;;;;;;;;;;26.53;56.03;97637.29;626892;225;66888;-64
2022/01/27 00:45:04;;;;;;;;;;;;;;;26.51;53.83;97641.37;626889;226;65144;-64
2022/01/27 00:47:32;;;;;;;;;;;;;;;26.49;54.53;97633.56;626871;226;67245;-68
2022/01/27 00:49:59;;;;;;;;;;;;;;;26.49;55.32;97638.95;626865;226;64766;-68
2022/01/27 00:52:39;;;;;;;;;;;;;;;26.49;52.51;97638.13;626837;226;62927;-68
2022/01/27 00:54:59;;;;;;;;;;;;;;;26.49;56.18;97636.25;626573;225;64722;-68
2022/01/27 01:00:13;;;;;;;;;;;;;;;26.44;55.47;97635.53;626828;226;62954;-67
2022/01/27 01:02:51;;;;;;;;;;;;;;;26.42;56.35;97638.50;626880;226;67406;-67
2022/01/27 01:05:32;;;;;;;;;;;;;;;26.43;56.08;97637.40;626701;225;64760;-67
2022/01/27 01:07:45;;;;;;;;;;;;;;;26.42;55.97;97640.41;626282;225;62903;-67
2022/01/27 01:15:41;;;;;;;;;;;;;;;26.35;51.45;97638.87;626860;226;65081;-67
2022/01/27 01:21:15;;;;;;;;;;;;;;;26.33;57.57;97643.75;626888;226;66997;-67
2022/01/27 01:29:52;;;;;;;;;;;;;;;26.32;53.95;97635.94;626903;226;67211;-67
2022/01/27 01:34:44;;;;;;;;;;;;;;;26.28;57.06;97630.34;626909;226;67230;-67
2022/01/27 01:36:35;;;;;;;;;;;;;;;26.26;55.80;97631.72;623544;226;66987;-67
2022/01/27 01:38:51;;;;;;;;;;;;;;;26.26;56.96;97627.12;626495;225;65110;-67
2022/01/27 01:41:18;;;;;;;;;;;;;;;26.25;57.72;97628.23;626924;226;67173;-63
2022/01/27 01:43:45;;;;;;;;;;;;;;;26.24;56.75;97625.81;626961;226;66789;-63
2022/01/27 01:46:13;;;;;;;;;;;;;;;26.22;55.95;97623.43;626868;226;65093;-67
2022/01/27 01:48:40;;;;;;;;;;;;;;;26.21;56.34;97619.11;626900;226;67224;-68
2022/01/27 01:51:08;;;;;;;;;;;;;;;26.19;57.34;97621.32;626857;226;67341;-67
2022/01/27 01:53:35;;;;;;;;;;;;;;;26.19;57.65;97613.23;625721;226;65040;-67
2022/01/27 01:56:04;;;;;;;;;;;;;;;26.18;57.07;97621.59;624612;227;67057;-67
2022/01/27 01:58:32;;;;;;;;;;;;;;;26.16;57.19;97624.56;624653;227;64828;-67
2022/01/27 02:00:59;;;;;;;;;;;;;;;26.16;57.29;97623.77;624626;227;62637;-67
2022/01/27 02:03:27;;;;;;;;;;;;;;;26.16;56.22;97629.16;624647;227;64890;-67
2022/01/27 02:05:56;;;;;;;;;;;;;;;26.13;57.20;97622.45;624614;227;67140;-67
2022/01/27 02:19:18;;;;;;;;;;;;;;;26.08;56.58;97603.66;624635;227;67418;-68
2022/01/27 02:21:47;;;;;;;;;;;;;;;26.05;56.68;97596.97;624593;227;67098;-67
2022/01/27 02:24:15;;;;;;;;;;;;;;;26.05;56.00;97615.02;624627;227;63512;-67
2022/01/27 02:26:43;;;;;;;;;;;;;;;26.05;54.52;97606.94;624615;227;64988;-67
2022/01/27 02:29:11;;;;;;;;;;;;;;;26.04;57.73;97616.13;624671;227;67026;-68
2022/01/27 02:31:38;;;;;;;;;;;;;;;26.01;57.79;97617.50;624654;227;64844;-67
2022/01/27 02:34:06;;;;;;;;;;;;;;;25.99;55.72;97613.50;624632;227;67034;-67
2022/01/27 02:36:34;;;;;;;;;;;;;;;25.98;57.62;97615.39;624644;227;64578;-68
2022/01/27 02:39:02;;;;;;;;;;;;;;;25.99;58.01;97613.50;624640;227;65044;-67
2022/01/27 02:41:31;;;;;;;;;;;;;;;25.97;56.92;97610.28;624677;227;66841;-67
2022/01/27 02:43:59;;;;;;;;;;;;;;;25.96;59.12;97606.80;624639;227;64783;-68
2022/01/27 02:46:28;;;;;;;;;;;;;;;25.96;57.40;97608.69;624617;227;62861;-63
2022/01/27 02:48:55;;;;;;;;;;;;;;;25.96;57.33;97601.41;624582;226;64422;-63
2022/01/27 02:51:23;;;;;;;;;;;;;;;25.93;56.93;97601.19;624634;227;65391;-63
2022/01/27 02:53:50;;;;;;;;;;;;;;;25.91;59.14;97596.88;625970;226;63015;-63
2022/01/27 02:56:18;;;;;;;;;;;;;;;25.90;56.97;97597.19;626960;226;64291;-63
2022/01/27 02:58:46;;;;;;;;;;;;;;;25.91;58.28;97604.16;626912;226;66618;-63
2022/01/27 03:01:15;;;;;;;;;;;;;;;25.90;57.18;97603.36;626869;226;64903;-63
2022/01/27 03:03:42;;;;;;;;;;;;;;;25.88;57.63;97602.84;626848;225;67208;-68
2022/01/27 03:06:10;;;;;;;;;;;;;;;25.90;57.56;97599.87;626857;226;67190;-68
2022/01/27 03:08:37;;;;;;;;;;;;;;;25.87;58.77;97601.25;626947;226;65030;-68
2022/01/27 03:11:06;;;;;;;;;;;;;;;25.85;55.70;97598.05;626875;226;67203;-64
2022/01/27 03:13:34;;;;;;;;;;;;;;;25.85;58.76;97600.73;626861;226;65020;-64
2022/01/27 03:16:01;;;;;;;;;;;;;;;25.83;58.28;97600.21;626867;226;62780;-63
2022/01/27 03:18:29;;;;;;;;;;;;;;;25.81;59.10;97605.08;626856;226;67203;-64
2022/01/27 03:20:56;;;;;;;;;;;;;;;25.81;59.17;97601.56;626959;226;66973;-64
2022/01/27 03:23:24;;;;;;;;;;;;;;;25.79;58.02;97607.25;626897;226;65058;-64
2022/01/27 03:25:51;;;;;;;;;;;;;;;25.78;58.51;97613.73;626861;226;66856;-64
2022/01/27 03:28:23;;;;;;;;;;;;;;;25.78;59.02;97613.73;626856;226;67125;-64
2022/01/27 03:30:48;;;;;;;;;;;;;;;25.76;58.82;97623.98;626780;225;65057;-64
2022/01/27 03:33:15;;;;;;;;;;;;;;;25.79;55.21;97620.70;626909;226;67317;-68
2022/01/27 03:35:43;;;;;;;;;;;;;;;25.78;59.04;97619.11;626908;226;67034;-68
2022/01/27 03:38:10;;;;;;;;;;;;;;;25.79;54.84;97619.91;626871;226;65009;-63
2022/01/27 03:40:38;;;;;;;;;;;;;;;25.77;59.24;97628.27;626873;226;67268;-64
2022/01/27 03:43:09;;;;;;;;;;;;;;;25.75;58.79;97627.74;626918;226;67015;-63
2022/01/27 03:45:34;;;;;;;;;;;;;;;25.73;59.15;97627.25;626854;225;64948;-63
2022/01/27 03:48:02;;;;;;;;;;;;;;;25.73;55.62;97624.56;626947;226;67343;-63
2022/01/27 03:50:29;;;;;;;;;;;;;;;25.73;53.96;97623.73;626879;226;67158;-64
2022/01/27 03:52:57;;;;;;;;;;;;;;;25.72;58.94;97628.32;626309;226;65033;-68
2022/01/27 03:55:25;;;;;;;;;;;;;;;25.70;55.82;97622.44;624569;227;67150;-68
2022/01/27 03:57:52;;;;;;;;;;;;;;;25.71;56.96;97617.86;624616;227;67003;-68
2022/01/27 04:00:20;;;;;;;;;;;;;;;25.70;55.82;97617.06;624674;227;62896;-68
2022/01/27 04:03:07;;;;;;;;;;;;;;;25.70;54.42;97622.44;624617;227;64963;-68
2022/01/27 04:05:38;;;;;;;;;;;;;;;25.68;55.01;97617.33;624520;225;67040;-67
2022/01/27 04:08:06;;;;;;;;;;;;;;;25.65;52.70;97634.06;624521;225;64985;-67
2022/01/27 04:10:33;;;;;;;;;;;;;;;25.66;53.12;97624.88;624617;227;67306;-67
2022/01/27 04:13:02;;;;;;;;;;;;;;;25.65;54.14;97627.88;624628;227;66760;-67
2022/01/27 04:15:29;;;;;;;;;;;;;;;25.64;56.35;97629.75;624664;227;65157;-67
2022/01/27 04:17:57;;;;;;;;;;;;;;;25.63;55.28;97633.53;624576;227;67190;-63
2022/01/27 04:20:24;;;;;;;;;;;;;;;25.62;54.50;97626.56;624556;227;67328;-62
2022/01/27 04:22:52;;;;;;;;;;;;;;;25.63;56.23;97632.74;624607;227;65052;-63
2022/01/27 04:25:20;;;;;;;;;;;;;;;25.61;51.61;97629.52;624601;227;67327;-63
2022/01/27 04:27:52;;;;;;;;;;;;;;;25.61;56.58;97640.30;624688;227;66936;-63
2022/01/27 04:30:19;;;;;;;;;;;;;;;25.59;53.40;97637.08;624546;225;65002;-64
2022/01/27 04:32:51;;;;;;;;;;;;;;;25.59;56.35;97632.52;624558;227;67251;-64
2022/01/27 04:35:19;;;;;;;;;;;;;;;25.57;55.41;97629.31;624538;225;65641;-64
2022/01/27 04:40:16;;;;;;;;;;;;;;;25.55;54.64;97633.37;616187;225;64775;-63
2022/01/27 04:45:18;;;;;;;;;;;;;;;25.53;54.82;97633.64;624586;227;62887;-63
2022/01/27 04:47:49;;;;;;;;;;;;;;;25.54;53.41;97626.39;624376;225;69016;-63
2022/01/27 04:50:14;;;;;;;;;;;;;;;25.52;52.10;97633.94;624538;225;66975;-63
2022/01/27 04:52:45;;;;;;;;;;;;;;;25.50;55.01;97634.22;624587;226;62924;-64
2022/01/27 04:55:13;;;;;;;;;;;;;;;25.47;53.57;97638.28;624536;226;64945;-63
2022/01/27 04:57:44;;;;;;;;;;;;;;;25.47;56.44;97640.97;624553;227;64918;-64
2022/01/27 05:00:15;;;;;;;;;;;;;;;25.46;53.36;97633.20;624565;227;65145;-64
2022/01/27 05:05:10;;;;;;;;;;;;;;;25.44;53.23;97635.36;624656;227;67023;-64
2022/01/27 05:07:39;;;;;;;;;;;;;;;25.41;53.55;97639.42;624646;227;65054;-64
2022/01/27 05:10:21;;;;;;;;;;;;;;;25.41;53.34;97636.73;624623;227;65119;-64
2022/01/27 05:12:45;;;;;;;;;;;;;;;25.41;54.02;97638.63;624295;225;64900;-63
2022/01/27 05:15:08;;;;;;;;;;;;;;;25.39;56.42;97644.28;624551;227;62907;-64
2022/01/27 05:17:36;;;;;;;;;;;;;;;25.38;55.15;97653.45;624612;227;67251;-64
2022/01/27 05:20:04;;;;;;;;;;;;;;;25.38;52.55;97653.45;624672;227;67000;-64
2022/01/27 05:22:34;;;;;;;;;;;;;;;25.38;54.73;97658.03;624613;227;65046;-64
2022/01/27 05:25:02;;;;;;;;;;;;;;;25.36;52.92;97655.61;624600;227;67200;-64
2022/01/27 05:27:29;;;;;;;;;;;;;;;25.35;53.42;97664.78;624653;227;66794;-64
2022/01/27 05:29:57;;;;;;;;;;;;;;;25.33;53.90;97663.45;624627;227;64994;-64
2022/01/27 05:32:24;;;;;;;;;;;;;;;25.34;54.71;97673.92;624662;227;67112;-63
2022/01/27 05:34:52;;;;;;;;;;;;;;;25.33;54.89;97671.53;624618;227;67339;-64
2022/01/27 05:37:19;;;;;;;;;;;;;;;25.31;53.71;97685.25;624625;227;64864;-64
2022/01/27 05:39:46;;;;;;;;;;;;;;;25.31;55.22;97684.45;624588;227;67214;-64
2022/01/27 05:42:14;;;;;;;;;;;;;;;25.29;56.95;97686.62;624639;227;67073;-64
2022/01/27 05:44:41;;;;;;;;;;;;;;;25.28;54.34;97696.58;624673;227;65013;-64
2022/01/27 05:47:09;;;;;;;;;;;;;;;25.29;55.34;97692.00;624642;227;64989;-64
2022/01/27 05:49:36;;;;;;;;;;;;;;;25.26;56.27;97690.67;624651;227;64966;-63
2022/01/27 05:52:04;;;;;;;;;;;;;;;25.27;55.10;97691.50;624613;227;62931;-64
2022/01/27 05:54:34;;;;;;;;;;;;;;;25.24;54.07;97684.80;626602;226;64615;-64
2022/01/27 05:57:01;;;;;;;;;;;;;;;25.25;52.84;97691.77;626884;226;64979;-64
2022/01/27 05:59:29;;;;;;;;;;;;;;;25.24;54.15;97695.55;626924;226;62877;-64
2022/01/27 06:01:56;;;;;;;;;;;;;;;25.22;54.29;97698.52;626894;226;65320;-64
2022/01/27 06:04:24;;;;;;;;;;;;;;;25.19;55.83;97703.66;626891;226;67031;-63
2022/01/27 06:06:53;;;;;;;;;;;;;;;25.21;57.07;97706.88;626893;226;62733;-64
2022/01/27 06:09:20;;;;;;;;;;;;;;;25.19;55.29;97706.36;626887;226;64673;-63
2022/01/27 06:11:50;;;;;;;;;;;;;;;25.20;56.04;97705.26;626955;226;66947;-64
2022/01/27 06:14:19;;;;;;;;;;;;;;;25.18;55.27;97704.73;626891;225;47174;-63
2022/01/27 06:16:47;;;;;;;;;;;;;;;25.18;54.79;97704.73;626905;226;67207;-63
2022/01/27 06:19:15;;;;;;;;;;;;;;;25.17;54.17;97716.58;626852;226;64904;-63
2022/01/27 06:21:44;;;;;;;;;;;;;;;25.16;55.30;97709.61;626893;226;62963;-63
2022/01/27 06:24:11;;;;;;;;;;;;;;;25.17;56.41;97711.20;626876;226;67188;-63
2022/01/27 06:26:39;;;;;;;;;;;;;;;25.15;54.66;97714.16;626909;226;67024;-63
2022/01/27 06:29:06;;;;;;;;;;;;;;;25.15;54.58;97726.81;626900;226;65027;-63
2022/01/27 06:31:34;;;;;;;;;;;;;;;25.13;55.40;97724.39;626851;226;67000;-65
2022/01/27 06:34:01;;;;;;;;;;;;;;;25.13;54.09;97729.77;626908;226;64893;-63
2022/01/27 06:36:29;;;;;;;;;;;;;;;25.13;54.64;97728.97;626940;226;62839;-63
2022/01/27 06:38:56;;;;;;;;;;;;;;;25.13;55.92;97723.59;626935;226;66987;-63
2022/01/27 06:41:24;;;;;;;;;;;;;;;25.12;54.70;97730.03;626935;226;66551;-63
2022/01/27 06:43:54;;;;;;;;;;;;;;;25.12;54.46;97730.83;626923;226;62888;-63
2022/01/27 06:46:21;;;;;;;;;;;;;;;25.10;54.91;97734.88;626871;226;64692;-67
2022/01/27 06:48:49;;;;;;;;;;;;;;;25.10;54.16;97737.58;626825;226;65874;-67
2022/01/27 06:51:16;;;;;;;;;;;;;;;25.10;54.99;97732.20;626924;226;64998;-67
2022/01/27 06:53:44;;;;;;;;;;;;;;;25.07;56.46;97738.14;626115;226;66676;-65
2022/01/27 06:56:11;;;;;;;;;;;;;;;25.05;53.65;97734.95;626893;226;66926;-67
2022/01/27 06:58:39;;;;;;;;;;;;;;;25.09;53.53;97733.29;626830;226;65072;-67
2022/01/27 07:01:06;;;;;;;;;;;;;;;25.07;53.76;97732.76;626733;226;64819;-67
2022/01/27 07:03:35;;;;;;;;;;;;;;;25.07;54.02;97722.00;626701;226;64902;-67
2022/01/27 07:06:02;;;;;;;;;;;;;;;25.07;53.90;97722.00;626823;226;65044;-68
2022/01/27 07:08:30;;;;;;;;;;;;;;;24.99;53.41;97723.40;626494;226;66768;-62
2022/01/27 07:10:57;;;;;;;;;;;;;;;24.99;54.76;97721.53;626663;226;66969;-65
2022/01/27 07:13:25;;;;;;;;;;;;;;;24.99;53.35;97726.91;626783;226;65087;-59
2022/01/27 07:15:55;;;;;;;;;;;;;;;25.00;54.14;97727.71;626850;226;67610;-64
2022/01/27 07:18:23;;;;;;;;;;;;;;;25.00;53.48;97733.09;626843;226;64979;-64
2022/01/27 07:20:50;;;;;;;;;;;;;;;25.00;54.69;97738.47;626808;226;62869;-63
2022/01/27 07:23:18;;;;;;;;;;;;;;;24.96;56.03;97734.72;626828;226;65707;-64
2022/01/27 07:25:45;;;;;;;;;;;;;;;24.94;55.40;97731.52;626798;226;66903;-63
2022/01/27 07:28:13;;;;;;;;;;;;;;;24.93;55.62;97741.45;626895;226;64896;-67
2022/01/27 07:30:41;;;;;;;;;;;;;;;24.92;56.38;97736.38;626805;226;64881;-59
2022/01/27 07:33:08;;;;;;;;;;;;;;;24.91;55.66;97732.88;626748;226;64873;-64
2022/01/27 07:35:37;;;;;;;;;;;;;;;24.91;53.17;97743.64;626773;226;63134;-60
2022/01/27 07:38:05;;;;;;;;;;;;;;;24.91;54.89;97742.81;626792;226;67294;-64
2022/01/27 07:40:33;;;;;;;;;;;;;;;24.90;57.50;97746.59;626813;226;64959;-60
2022/01/27 07:43:01;;;;;;;;;;;;;;;24.88;54.06;97746.89;626828;226;62933;-63
2022/01/27 07:45:28;;;;;;;;;;;;;;;24.85;58.11;97744.73;626819;226;67228;-64
2022/01/27 07:47:57;;;;;;;;;;;;;;;24.88;57.13;97741.52;626859;226;67006;-66
2022/01/27 07:50:29;;;;;;;;;;;;;;;24.91;55.02;97742.81;626778;226;62892;-66
2022/01/27 07:52:54;;;;;;;;;;;;;;;24.89;58.50;97742.31;626580;225;64906;-60
2022/01/27 07:55:22;;;;;;;;;;;;;;;24.86;56.39;97749.05;626789;226;64636;-64
2022/01/27 07:57:49;;;;;;;;;;;;;;;24.88;53.18;97746.89;626770;226;64991;-63
2022/01/27 08:00:17;;;;;;;;;;;;;;;24.86;56.24;97738.29;626782;226;67158;-63
2022/01/27 08:02:45;;;;;;;;;;;;;;;24.90;52.54;97743.91;626756;226;67379;-60
2022/01/27 08:05:13;;;;;;;;;;;;;;;24.91;57.84;97751.70;626734;226;62638;-63
2022/01/27 08:07:42;;;;;;;;;;;;;;;24.90;58.43;97749.28;626816;226;65084;-65
2022/01/27 08:10:11;;;;;;;;;;;;;;;24.87;54.71;97753.33;626739;226;65053;-64
2022/01/27 08:12:45;;;;;;;;;;;;;;;24.91;56.69;97746.33;626752;226;65036;-63
2022/01/27 08:15:14;;;;;;;;;;;;;;;24.91;57.48;97742.81;626737;226;65227;-64
2022/01/27 08:17:42;;;;;;;;;;;;;;;24.90;55.28;97744.70;626674;226;67056;-64
2022/01/27 08:20:10;;;;;;;;;;;;;;;24.91;54.43;97740.13;626780;226;63807;-64
2022/01/27 08:22:40;;;;;;;;;;;;;;;24.93;58.25;97743.34;626734;225;47120;-64
2022/01/27 08:25:07;;;;;;;;;;;;;;;24.93;57.27;97743.34;626694;226;65206;-64
2022/01/27 08:27:37;;;;;;;;;;;;;;;24.94;56.77;97744.97;626778;226;65041;-63
2022/01/27 08:30:05;;;;;;;;;;;;;;;24.90;51.45;97743.91;626802;226;67260;-64
2022/01/27 08:32:48;;;;;;;;;;;;;;;24.92;57.26;97758.67;626754;226;66900;-63
2022/01/27 08:35:15;;;;;;;;;;;;;;;24.89;54.70;97753.86;626795;225;69643;-64
2022/01/27 08:37:43;;;;;;;;;;;;;;;24.93;57.19;97757.59;626917;226;67264;-63
2022/01/27 08:40:13;;;;;;;;;;;;;;;24.89;56.25;97753.86;626817;226;64848;-59
2022/01/27 08:42:40;;;;;;;;;;;;;;;24.89;54.51;97759.23;626760;226;65121;-65
2022/01/27 08:45:09;;;;;;;;;;;;;;;24.82;53.04;97753.36;626799;226;64955;-66
2022/01/27 08:47:37;;;;;;;;;;;;;;;24.88;58.49;97757.64;626736;226;67128;-69
2022/01/27 08:50:05;;;;;;;;;;;;;;;24.88;58.40;97749.58;626882;226;65061;-65
2022/01/27 08:52:34;;;;;;;;;;;;;;;24.85;58.25;97746.62;626488;226;65105;-66
2022/01/27 08:55:01;;;;;;;;;;;;;;;24.92;58.77;97741.75;624502;227;64961;-66
2022/01/27 08:57:29;;;;;;;;;;;;;;;24.92;59.35;97747.13;623970;227;62735;-63
2022/01/27 08:59:56;;;;;;;;;;;;;;;24.92;59.86;97745.23;624492;227;64974;-66
2022/01/27 09:02:24;;;;;;;;;;;;;;;24.94;59.69;97743.08;624593;227;64974;-66
2022/01/27 09:04:52;;;;;;;;;;;;;;;24.95;60.01;97750.05;624555;227;65008;-65
2022/01/27 09:07:20;;;;;;;;;;;;;;;24.96;59.24;97748.16;624570;227;67022;-66
2022/01/27 09:09:50;;;;;;;;;;;;;;;24.97;60.10;97745.20;624570;225;46376;-65
2022/01/27 09:12:17;;;;;;;;;;;;;;;24.99;58.69;97751.11;624607;227;63014;-66
2022/01/27 09:14:45;;;;;;;;;;;;;;;25.01;59.26;97740.86;624588;227;64955;-66
2022/01/27 09:17:13;;;;;;;;;;;;;;;25.01;58.45;97740.86;624513;227;67236;-65
2022/01/27 09:19:42;;;;;;;;;;;;;;;25.03;58.84;97740.59;624559;227;65013;-68
2022/01/27 09:22:15;;;;;;;;;;;;;;;25.06;58.72;97741.92;624559;227;67101;-65
2022/01/27 09:24:56;;;;;;;;;;;;;;;25.06;59.04;97736.55;624515;227;67762;-65
2022/01/27 09:27:20;;;;;;;;;;;;;;;25.07;58.83;97738.14;624509;225;62916;-66
2022/01/27 09:29:48;;;;;;;;;;;;;;;25.08;59.75;97737.87;624596;227;67147;-65
2022/01/27 09:32:16;;;;;;;;;;;;;;;25.08;59.19;97734.38;624600;227;66970;-65
2022/01/27 09:34:44;;;;;;;;;;;;;;;25.09;59.07;97731.40;624559;227;65096;-65
2022/01/27 09:37:11;;;;;;;;;;;;;;;25.09;59.01;97720.64;624519;227;64607;-65
2022/01/27 09:39:41;;;;;;;;;;;;;;;25.13;59.29;97726.28;624610;227;64944;-66
2022/01/27 09:42:09;;;;;;;;;;;;;;;25.12;58.67;97720.08;624603;227;62917;-65
2022/01/27 09:44:40;;;;;;;;;;;;;;;25.13;57.81;97719.02;624523;227;67401;-63
2022/01/27 09:47:07;;;;;;;;;;;;;;;25.12;58.45;97717.39;624529;226;67169;-64
2022/01/27 09:49:42;;;;;;;;;;;;;;;25.20;56.90;97713.33;624528;227;65663;-65
2022/01/27 09:52:08;;;;;;;;;;;;;;;25.20;58.45;97711.44;624479;226;67221;-66
2022/01/27 09:54:36;;;;;;;;;;;;;;;25.21;58.19;97709.58;626100;226;67092;-66
2022/01/27 09:57:04;;;;;;;;;;;;;;;25.24;56.76;97706.31;626863;226;65232;-66
2022/01/27 09:59:32;;;;;;;;;;;;;;;25.27;58.27;97710.33;626711;223;67230;-65
2022/01/27 10:02:01;;;;;;;;;;;;;;;25.29;56.61;97706.27;626793;226;67134;-65
2022/01/27 10:04:32;;;;;;;;;;;;;;;25.28;57.72;97701.96;625949;226;65048;-65
2022/01/27 10:07:00;;;;;;;;;;;;;;;25.30;58.04;97705.18;626195;226;64938;-65
2022/01/27 10:09:30;;;;;;;;;;;;;;;25.27;57.56;97697.67;626904;226;67462;-62
2022/01/27 10:11:58;;;;;;;;;;;;;;;25.23;59.86;97693.93;626791;226;65248;-67
2022/01/27 10:14:27;;;;;;;;;;;;;;;25.21;59.48;97693.44;626635;226;68811;-67
2022/01/27 10:16:58;;;;;;;;;;;;;;;25.21;59.54;97686.16;626486;226;66959;-66
2022/01/27 10:19:26;;;;;;;;;;;;;;;25.18;59.51;97681.34;619899;226;65329;-67
2022/01/27 10:22:01;;;;;;;;;;;;;;;25.21;58.86;97683.47;626579;226;67200;-67
2022/01/27 10:24:30;;;;;;;;;;;;;;;25.21;58.47;97685.36;623476;226;66897;-67
2022/01/27 10:27:45;;;;;;;;;;;;;;;25.21;58.17;97679.98;626734;226;64675;-67
2022/01/27 10:30:36;;;;;;;;;;;;;;;25.21;57.57;97675.40;626183;226;67255;-66
2022/01/27 10:32:43;;;;;;;;;;;;;;;25.22;58.84;97682.38;625782;226;67244;-65
2022/01/27 10:35:11;;;;;;;;;;;;;;;25.22;59.50;97678.89;626753;226;65348;-67
2022/01/27 10:37:53;;;;;;;;;;;;;;;25.23;59.22;97677.80;626795;226;64831;-67
2022/01/27 10:40:21;;;;;;;;;;;;;;;25.24;58.21;97668.66;613860;226;65197;-67
2022/01/27 10:42:50;;;;;;;;;;;;;;;25.24;58.61;97668.66;626779;226;65043;-66
2022/01/27 10:45:18;;;;;;;;;;;;;;;25.25;58.55;97667.56;624322;226;67229;-67
2022/01/27 10:47:46;;;;;;;;;;;;;;;25.27;57.89;97660.02;626741;226;66857;-60
2022/01/27 10:50:14;;;;;;;;;;;;;;;25.26;58.46;97661.08;626872;226;64810;-66
2022/01/27 10:52:48;;;;;;;;;;;;;;;25.30;58.22;97658.65;626815;226;66676;-66
2022/01/27 10:55:14;;;;;;;;;;;;;;;25.35;56.82;97647.84;625222;226;67031;-65
2022/01/27 10:57:50;;;;;;;;;;;;;;;25.38;56.39;97648.06;625062;227;65054;-66
2022/01/27 11:00:16;;;;;;;;;;;;;;;25.42;54.79;97637.53;625258;226;65082;-59
2022/01/27 11:02:57;;;;;;;;;;;;;;;25.44;54.76;97643.44;625289;227;66841;-63
2022/01/27 11:05:26;;;;;;;;;;;;;;;25.43;55.85;97641.84;625443;227;62895;-66
2022/01/27 11:07:54;;;;;;;;;;;;;;;25.42;56.49;97642.91;625365;227;64762;-66
2022/01/27 11:10:21;;;;;;;;;;;;;;;25.46;54.58;97636.69;625389;227;64737;-67
2022/01/27 11:12:50;;;;;;;;;;;;;;;25.49;54.32;97631.83;625271;227;65101;-65
2022/01/27 11:15:19;;;;;;;;;;;;;;;25.49;55.66;97629.13;625449;227;67145;-66
2022/01/27 11:17:48;;;;;;;;;;;;;;;25.50;55.95;97622.66;625406;227;67213;-64
2022/01/27 11:20:28;;;;;;;;;;;;;;;25.50;55.38;97623.45;625458;227;63077;-63
2022/01/27 11:28:04;;;;;;;;;;;;;;;25.52;55.93;97609.72;625315;227;63024;-65
2022/01/27 11:30:39;;;;;;;;;;;;;;;25.51;56.59;97603.55;625359;227;67190;-65
2022/01/27 11:33:13;;;;;;;;;;;;;;;25.54;53.99;97607.55;625214;227;64902;-66
2022/01/27 11:35:41;;;;;;;;;;;;;;;25.54;55.60;97611.05;625389;227;62805;-66
2022/01/27 11:38:09;;;;;;;;;;;;;;;25.53;55.85;97603.24;625377;227;64982;-65
2022/01/27 11:40:41;;;;;;;;;;;;;;;25.54;55.57;97597.59;625425;227;66796;-66
2022/01/27 11:43:12;;;;;;;;;;;;;;;25.55;54.24;97593.00;625365;227;63100;-67
2022/01/27 11:45:42;;;;;;;;;;;;;;;25.56;55.13;97590.00;625356;227;67335;-67
2022/01/27 11:48:12;;;;;;;;;;;;;;;25.54;55.36;97584.13;625359;227;65430;-68
2022/01/27 11:51:17;;;;;;;;;;;;;;;25.55;55.82;97587.62;625461;227;65037;-68
2022/01/27 11:53:30;;;;;;;;;;;;;;;25.56;55.18;97589.20;619333;227;64987;-67
2022/01/27 11:56:00;;;;;;;;;;;;;;;25.57;54.68;97586.25;623260;227;67032;-65
2022/01/27 11:58:28;;;;;;;;;;;;;;;25.58;55.21;97585.14;623180;227;64900;-66
2022/01/27 12:01:07;;;;;;;;;;;;;;;25.58;54.46;97579.77;623160;227;67004;-64
2022/01/27 12:03:35;;;;;;;;;;;;;;;25.61;55.60;97573.00;623089;227;64691;-66
2022/01/27 12:06:13;;;;;;;;;;;;;;;25.58;57.41;97573.58;623214;227;65203;-66
2022/01/27 12:08:41;;;;;;;;;;;;;;;25.60;56.94;97571.41;623252;227;66855;-66
2022/01/27 12:11:11;;;;;;;;;;;;;;;25.63;53.96;97568.14;623012;227;67059;-67
2022/01/27 12:19:02;;;;;;;;;;;;;;;25.71;53.58;97559.43;623248;227;67038;-64
2022/01/27 12:21:38;;;;;;;;;;;;;;;25.73;53.36;97556.43;618107;227;64900;-67
2022/01/27 12:24:22;;;;;;;;;;;;;;;25.75;53.31;97557.75;623243;227;45620;-65
2022/01/27 12:26:49;;;;;;;;;;;;;;;25.77;53.25;97558.27;622846;227;67099;-64
2022/01/27 12:29:30;;;;;;;;;;;;;;;25.79;52.76;97545.33;623103;227;65339;-64
2022/01/27 12:31:59;;;;;;;;;;;;;;;25.81;52.24;97539.64;623190;227;67072;-63
2022/01/27 12:34:27;;;;;;;;;;;;;;;25.83;52.64;97545.54;623207;227;66985;-64
2022/01/27 12:36:58;;;;;;;;;;;;;;;25.84;52.29;97537.22;623145;227;62667;-64
2022/01/27 12:39:27;;;;;;;;;;;;;;;25.88;53.51;97538.22;623257;227;67230;-64
2022/01/27 12:41:55;;;;;;;;;;;;;;;25.89;53.29;97531.77;623220;227;64929;-64
2022/01/27 12:44:25;;;;;;;;;;;;;;;25.90;52.36;97525.27;623223;227;65062;-64
2022/01/27 12:47:10;;;;;;;;;;;;;;;25.94;52.41;97532.77;623287;227;67406;-64
2022/01/27 12:49:45;;;;;;;;;;;;;;;25.94;52.91;97533.56;623187;227;67038;-64
2022/01/27 12:52:18;;;;;;;;;;;;;;;25.98;52.53;97533.80;623163;227;62780;-64
2022/01/27 12:54:48;;;;;;;;;;;;;;;25.99;52.22;97519.23;623170;227;65041;-64
2022/01/27 12:57:16;;;;;;;;;;;;;;;26.02;52.02;97515.95;623219;227;64702;-64
2022/01/27 12:59:44;;;;;;;;;;;;;;;26.03;52.44;97522.97;623063;227;65041;-64
2022/01/27 13:02:13;;;;;;;;;;;;;;;26.05;52.18;97523.45;623153;227;45764;-64
2022/01/27 13:04:42;;;;;;;;;;;;;;;26.06;52.53;97519.69;623163;227;67384;-64
2022/01/27 13:07:09;;;;;;;;;;;;;;;26.08;52.94;97520.17;623164;227;65043;-64
2022/01/27 13:09:39;;;;;;;;;;;;;;;26.10;52.37;97516.09;623207;227;67252;-65
2022/01/27 13:12:19;;;;;;;;;;;;;;;26.12;52.34;97510.42;623193;227;67045;-65
2022/01/27 13:14:52;;;;;;;;;;;;;;;26.13;52.41;97512.81;623206;227;45113;-64
2022/01/27 13:17:27;;;;;;;;;;;;;;;26.15;52.59;97506.35;623166;227;67263;-64
2022/01/27 13:19:57;;;;;;;;;;;;;;;26.16;52.25;97511.42;623047;227;67247;-66
2022/01/27 13:22:28;;;;;;;;;;;;;;;26.18;52.01;97505.77;623066;227;64761;-66
2022/01/27 13:24:51;;;;;;;;;;;;;;;26.20;52.68;97500.89;623066;225;66806;-65
2022/01/27 13:27:19;;;;;;;;;;;;;;;26.21;52.24;97503.27;623268;227;67005;-69
2022/01/27 13:29:48;;;;;;;;;;;;;;;26.23;52.21;97503.78;623225;227;44722;-64
2022/01/27 13:32:16;;;;;;;;;;;;;;;26.25;52.28;97492.73;623216;227;67362;-65
2022/01/27 13:34:50;;;;;;;;;;;;;;;26.27;51.86;97495.91;623167;227;66918;-66
2022/01/27 13:37:31;;;;;;;;;;;;;;;26.27;52.21;97496.73;623272;227;63885;-66
2022/01/27 13:42:51;;;;;;;;;;;;;;;26.31;52.05;97497.73;623220;227;67099;-65
2022/01/27 13:45:19;;;;;;;;;;;;;;;26.31;51.94;97492.34;623238;227;65047;-64
2022/01/27 13:47:46;;;;;;;;;;;;;;;26.33;51.71;97500.14;623239;227;67062;-65